SNH weather

Stanthorpe Airport
Queensland, Australia

Public forecast

Using degrees Celsius for public forecast. Weather courtesy of forecast.io.

METAR (pilot weather report)

Closest report is Casino Airport, 58.8 nm (108.9 km) ESE. Retrieved 2019/04/26 00:00 UTC (5 minutes ago):

YCAS 260000Z AUTO 34006KT //// // ////// 24/17 Q1018

TAF (pilot weather forecast)

Forecast is more than 12 hours old.

Closest forecast is RAAF Base Amberley, 70.1 nm (129.9 km) NNE. Retrieved 2019/04/25 00:00 UTC (1 day ago):

TAF YAMB 252344Z 2600/2618 VRB06KT 9999 SCT035 PROB30 2615/2618 0600 FG